createdAt,value
2018-04-12T00:00:45.477Z,57.30
2018-04-12T00:01:49.975Z,57.30
2018-04-12T00:02:53.953Z,57.30
2018-04-12T00:03:57.871Z,57.30
2018-04-12T00:05:02.123Z,57.20
2018-04-12T00:06:06.868Z,57.30
2018-04-12T00:07:12.716Z,57.30
2018-04-12T00:08:16.665Z,57.20
2018-04-12T00:09:20.673Z,57.20
2018-04-12T00:10:24.829Z,57.20
2018-04-12T00:11:28.803Z,57.10
2018-04-12T00:12:33.052Z,57.10
2018-04-12T00:13:37.513Z,57.00
2018-04-12T00:14:41.518Z,57.00
2018-04-12T00:15:45.437Z,57.00
2018-04-12T00:16:49.674Z,57.00
2018-04-12T00:17:53.608Z,57.10
2018-04-12T00:18:58.635Z,57.10
2018-04-12T00:20:03.330Z,57.00
2018-04-12T00:21:07.363Z,57.00
2018-04-12T00:22:13.397Z,56.90
2018-04-12T00:23:17.768Z,56.90
2018-04-12T00:24:21.921Z,56.90
2018-04-12T00:25:26.190Z,57.00
2018-04-12T00:26:30.124Z,56.90
2018-04-12T00:27:34.049Z,56.80
2018-04-12T00:28:38.103Z,56.90
2018-04-12T00:29:42.816Z,56.90
2018-04-12T00:30:47.588Z,56.90
2018-04-12T00:31:52.763Z,56.90
2018-04-12T00:32:58.737Z,57.00
2018-04-12T00:34:02.705Z,56.90
2018-04-12T00:35:07.691Z,57.10
2018-04-12T00:36:12.036Z,56.80
2018-04-12T00:37:16.716Z,56.90
2018-04-12T00:38:20.693Z,56.90
2018-04-12T00:39:24.904Z,56.90
2018-04-12T00:40:28.844Z,56.80
2018-04-12T00:41:33.581Z,56.70
2018-04-12T00:42:38.548Z,56.70
2018-04-12T00:43:42.511Z,56.70
2018-04-12T00:44:46.504Z,56.70
2018-04-12T00:45:51.248Z,56.70
2018-04-12T00:46:56.100Z,56.70
2018-04-12T00:48:00.052Z,56.70
2018-04-12T00:49:03.997Z,56.70
2018-04-12T00:50:08.848Z,56.60
2018-04-12T00:51:14.738Z,56.70
2018-04-12T00:52:18.661Z,56.70
2018-04-12T00:53:31.526Z,57.20
2018-04-12T00:54:35.804Z,56.60
2018-04-12T00:55:40.519Z,56.70
2018-04-12T00:56:45.265Z,56.70
2018-04-12T00:57:49.236Z,56.70
2018-04-12T00:58:53.940Z,56.80
2018-04-12T00:59:57.915Z,56.70
2018-04-12T01:01:01.876Z,56.80
2018-04-12T01:02:05.834Z,56.60
2018-04-12T01:03:09.757Z,56.60
2018-04-12T01:04:14.475Z,56.60
2018-04-12T01:05:19.146Z,56.60
2018-04-12T01:06:23.065Z,56.60
2018-04-12T01:07:27.034Z,56.50
2018-04-12T01:08:31.283Z,56.50
2018-04-12T01:09:35.340Z,56.50
2018-04-12T01:10:39.269Z,56.50
2018-04-12T01:11:44.176Z,56.70
2018-04-12T01:12:48.086Z,56.70
2018-04-12T01:13:52.048Z,56.50
2018-04-12T01:14:56.043Z,56.60
2018-04-12T01:15:59.996Z,56.50
2018-04-12T01:17:03.973Z,56.50
2018-04-12T01:18:07.952Z,56.50
2018-04-12T01:19:13.422Z,56.60
2018-04-12T01:20:17.738Z,56.60
2018-04-12T01:21:22.678Z,56.50
2018-04-12T01:22:27.362Z,56.40
2018-04-12T01:23:32.047Z,56.40
2018-04-12T01:24:37.813Z,56.40
2018-04-12T01:25:42.048Z,56.50
2018-04-12T01:26:46.980Z,56.40
2018-04-12T01:27:51.689Z,56.60
2018-04-12T01:28:56.402Z,56.40
2018-04-12T01:30:01.395Z,57.00
2018-04-12T01:31:06.070Z,56.40
2018-04-12T01:32:10.043Z,56.40
2018-04-12T01:33:17.193Z,56.40
2018-04-12T01:34:21.972Z,56.20
2018-04-12T01:35:25.949Z,56.40
2018-04-12T01:36:30.483Z,56.40
2018-04-12T01:37:35.047Z,56.40
2018-04-12T01:38:40.685Z,56.40
2018-04-12T01:39:47.508Z,56.40
2018-04-12T01:40:52.241Z,56.40
2018-04-12T01:41:57.285Z,56.40
2018-04-12T01:43:02.861Z,56.30
2018-04-12T01:44:07.558Z,56.40
2018-04-12T01:45:12.920Z,56.40
2018-04-12T01:46:17.041Z,56.40
2018-04-12T01:47:20.996Z,56.40
2018-04-12T01:48:25.742Z,56.20
2018-04-12T01:49:29.992Z,56.30
2018-04-12T01:50:35.889Z,56.20
2018-04-12T01:51:40.030Z,56.20
2018-04-12T01:52:44.292Z,56.20
2018-04-12T01:53:48.359Z,56.20
2018-04-12T01:54:52.396Z,56.30
2018-04-12T01:55:56.404Z,56.30
2018-04-12T01:57:00.388Z,56.30
2018-04-12T01:58:04.785Z,56.20
2018-04-12T01:59:09.537Z,56.20
2018-04-12T02:00:14.216Z,55.40
2018-04-12T02:01:19.012Z,56.20
2018-04-12T02:02:22.980Z,56.20
2018-04-12T02:03:26.963Z,56.20
2018-04-12T02:04:30.921Z,56.20
2018-04-12T02:05:34.924Z,56.20
2018-04-12T02:06:39.126Z,56.20
2018-04-12T02:07:43.277Z,56.20
2018-04-12T02:08:47.191Z,56.30
2018-04-12T02:09:51.307Z,56.20
2018-04-12T02:10:56.012Z,56.20
2018-04-12T02:11:59.967Z,56.20
2018-04-12T02:13:04.832Z,56.20
2018-04-12T02:14:10.274Z,56.20
2018-04-12T02:15:15.814Z,56.20
2018-04-12T02:16:19.977Z,56.10
2018-04-12T02:17:24.774Z,56.10
2018-04-12T02:18:29.550Z,56.10
2018-04-12T02:19:34.234Z,56.20
2018-04-12T02:20:39.498Z,56.10
2018-04-12T02:21:43.634Z,56.10
2018-04-12T02:22:48.471Z,56.10
2018-04-12T02:23:53.136Z,56.10
2018-04-12T02:24:57.096Z,56.20
2018-04-12T02:26:01.081Z,56.20
2018-04-12T02:27:05.774Z,56.20
2018-04-12T02:28:09.993Z,56.20
2018-04-12T02:29:15.193Z,56.20
2018-04-12T02:30:19.220Z,56.10
2018-04-12T02:31:24.660Z,56.20
2018-04-12T02:32:29.377Z,56.20
2018-04-12T02:33:34.434Z,56.10
2018-04-12T02:34:38.466Z,56.10
2018-04-12T02:35:42.426Z,56.20
2018-04-12T02:36:47.172Z,56.10
2018-04-12T02:37:51.295Z,56.00
2018-04-12T02:38:55.796Z,56.10
2018-04-12T02:40:00.598Z,56.60
2018-04-12T02:41:04.549Z,56.10
2018-04-12T02:42:10.208Z,56.20
2018-04-12T02:43:15.788Z,56.20
2018-04-12T02:44:23.745Z,56.00
2018-04-12T02:45:28.033Z,56.10
2018-04-12T02:46:34.150Z,56.10
2018-04-12T02:47:39.288Z,56.10
2018-04-12T02:48:43.997Z,56.20
2018-04-12T02:49:48.816Z,56.10
2018-04-12T02:50:52.785Z,56.00
2018-04-12T02:51:59.548Z,56.00
2018-04-12T02:53:04.268Z,56.00
2018-04-12T02:54:08.316Z,56.00
2018-04-12T02:55:15.013Z,56.00
2018-04-12T02:56:19.217Z,56.00
2018-04-12T02:57:24.002Z,56.10
2018-04-12T02:58:28.739Z,56.10
2018-04-12T02:59:33.791Z,56.00
2018-04-12T03:00:37.823Z,56.10
2018-04-12T03:01:44.090Z,56.10
2018-04-12T03:02:48.828Z,56.10
2018-04-12T03:03:52.937Z,56.10
2018-04-12T03:04:57.592Z,56.00
2018-04-12T03:06:01.624Z,56.00
2018-04-12T03:08:09.113Z,56.10
2018-04-12T03:09:14.518Z,55.90
2018-04-12T03:10:18.456Z,55.90
2018-04-12T03:11:23.343Z,55.90
2018-04-12T03:12:28.410Z,55.90
2018-04-12T03:13:33.211Z,55.80
2018-04-12T03:14:37.187Z,55.80
2018-04-12T03:15:41.132Z,55.90
2018-04-12T03:16:45.724Z,55.90
2018-04-12T03:17:49.667Z,55.90
2018-04-12T03:18:53.746Z,55.90
2018-04-12T03:19:57.674Z,55.80
2018-04-12T03:21:01.972Z,56.00
2018-04-12T03:22:06.010Z,55.90
2018-04-12T03:23:10.122Z,55.90
2018-04-12T03:24:14.615Z,55.80
2018-04-12T03:25:18.600Z,55.70
2018-04-12T03:26:22.628Z,55.80
2018-04-12T03:27:26.605Z,55.80
2018-04-12T03:28:30.572Z,55.80
2018-04-12T03:29:34.747Z,55.80
2018-04-12T03:30:39.494Z,55.70
2018-04-12T03:31:43.488Z,55.70
2018-04-12T03:32:47.635Z,55.80
2018-04-12T03:33:52.457Z,55.70
2018-04-12T03:35:38.950Z,55.80
2018-04-12T03:36:43.288Z,55.70
2018-04-12T03:37:48.128Z,55.80
2018-04-12T03:38:52.125Z,56.50
2018-04-12T03:39:56.603Z,55.60
2018-04-12T03:41:00.617Z,55.70
2018-04-12T03:42:05.356Z,55.50
2018-04-12T03:43:10.220Z,55.50
2018-04-12T03:44:14.702Z,55.60
2018-04-12T03:45:18.676Z,55.60
2018-04-12T03:46:23.475Z,55.60
2018-04-12T03:47:27.454Z,55.70
2018-04-12T03:48:31.458Z,55.60
2018-04-12T03:49:37.040Z,56.30
2018-04-12T03:50:41.033Z,55.50
2018-04-12T03:51:45.078Z,55.50
2018-04-12T03:52:49.036Z,55.50
2018-04-12T03:53:53.864Z,56.10
2018-04-12T03:54:57.852Z,55.50
2018-04-12T03:56:02.701Z,55.40
2018-04-12T03:57:06.981Z,55.40
2018-04-12T03:58:12.433Z,55.60
2018-04-12T03:59:16.797Z,55.50
2018-04-12T04:00:20.980Z,55.40
2018-04-12T04:01:25.295Z,55.20
2018-04-12T04:02:31.950Z,55.40
2018-04-12T04:03:36.197Z,55.40
2018-04-12T04:04:41.754Z,55.40
2018-04-12T04:05:46.093Z,55.30
2018-04-12T04:06:50.146Z,55.30
2018-04-12T04:07:54.962Z,55.30
2018-04-12T04:09:00.048Z,55.20
2018-04-12T04:10:04.058Z,55.20
2018-04-12T04:11:08.252Z,55.30
2018-04-12T04:12:12.833Z,55.30
2018-04-12T04:13:16.761Z,55.20
2018-04-12T04:14:30.062Z,55.20
2018-04-12T04:17:48.192Z,55.20
2018-04-12T04:20:59.859Z,55.20
2018-04-12T04:22:05.061Z,55.20
2018-04-12T04:23:09.192Z,55.20
2018-04-12T04:24:14.564Z,55.10
2018-04-12T04:25:19.019Z,55.00
2018-04-12T04:26:23.027Z,55.10
2018-04-12T04:27:27.989Z,55.10
2018-04-12T04:28:32.172Z,55.10
2018-04-12T04:29:36.179Z,55.00
2018-04-12T04:30:40.340Z,55.00
2018-04-12T04:31:44.497Z,55.00
2018-04-12T04:32:49.707Z,55.00
2018-04-12T04:33:53.668Z,55.00
2018-04-12T04:34:57.781Z,55.10
2018-04-12T04:36:02.139Z,55.00
2018-04-12T04:37:08.620Z,55.00
2018-04-12T04:38:13.508Z,55.00
2018-04-12T04:39:17.829Z,55.00
2018-04-12T04:40:21.833Z,55.00
2018-04-12T04:41:26.412Z,55.00
2018-04-12T04:42:31.228Z,54.90
2018-04-12T04:43:36.093Z,54.90
2018-04-12T04:44:40.263Z,54.90
2018-04-12T04:45:44.251Z,55.60
2018-04-12T04:46:49.905Z,54.90
2018-04-12T04:47:54.129Z,54.80
2018-04-12T04:48:58.197Z,54.90
2018-04-12T04:50:02.969Z,54.80
2018-04-12T04:51:07.030Z,54.80
2018-04-12T04:52:11.441Z,54.90
2018-04-12T04:53:15.434Z,54.90
2018-04-12T04:54:19.639Z,54.90
2018-04-12T04:55:24.392Z,54.80
2018-04-12T04:56:28.725Z,54.80
2018-04-12T04:57:32.979Z,54.80
2018-04-12T04:58:36.962Z,54.80
2018-04-12T04:59:43.051Z,54.80
2018-04-12T05:00:47.150Z,54.80
2018-04-12T05:01:52.508Z,54.80
2018-04-12T05:02:56.511Z,54.80
2018-04-12T05:04:00.461Z,54.80
2018-04-12T05:05:05.291Z,54.80
2018-04-12T05:06:09.558Z,54.80
2018-04-12T05:07:16.773Z,54.70
2018-04-12T05:08:21.938Z,54.80
2018-04-12T05:09:26.844Z,54.70
2018-04-12T05:10:31.064Z,54.70
2018-04-12T05:11:35.353Z,54.70
2018-04-12T05:12:41.002Z,54.70
2018-04-12T05:13:47.076Z,54.70
2018-04-12T05:14:52.195Z,54.60
2018-04-12T05:15:56.297Z,54.70
2018-04-12T05:17:00.352Z,54.30
2018-04-12T05:18:06.218Z,55.80
2018-04-12T05:19:10.325Z,54.60
2018-04-12T05:20:14.812Z,54.60
2018-04-12T05:21:18.841Z,54.20
2018-04-12T05:22:23.141Z,54.60
2018-04-12T05:23:27.231Z,54.60
2018-04-12T05:24:31.884Z,54.60
2018-04-12T05:25:36.194Z,54.70
2018-04-12T05:26:41.190Z,54.60
2018-04-12T05:27:46.357Z,54.60
2018-04-12T05:28:50.373Z,54.60
2018-04-12T05:29:54.509Z,54.60
2018-04-12T05:30:59.266Z,54.60
2018-04-12T05:32:03.349Z,54.50
2018-04-12T05:33:08.105Z,54.60
2018-04-12T05:34:15.119Z,54.60
2018-04-12T05:35:19.128Z,54.60
2018-04-12T05:36:23.104Z,54.70
2018-04-12T05:37:27.970Z,54.60
2018-04-12T05:38:33.108Z,54.60
2018-04-12T05:39:38.483Z,53.60
2018-04-12T05:40:43.251Z,54.50
2018-04-12T05:41:48.548Z,54.60
2018-04-12T05:42:52.496Z,54.60
2018-04-12T05:43:57.430Z,54.60
2018-04-12T05:45:02.426Z,54.60
2018-04-12T05:46:08.037Z,54.60
2018-04-12T05:47:12.606Z,54.60
2018-04-12T05:48:16.855Z,54.60
2018-04-12T05:49:21.711Z,54.60
2018-04-12T05:50:26.565Z,54.60
2018-04-12T05:51:30.592Z,55.40
2018-04-12T05:52:35.170Z,54.50
2018-04-12T05:53:40.300Z,54.60
2018-04-12T05:54:44.310Z,54.50
2018-04-12T05:55:48.335Z,54.50
2018-04-12T05:56:53.093Z,54.70
2018-04-12T05:57:57.872Z,54.50
2018-04-12T05:59:02.208Z,54.50
2018-04-12T06:00:07.281Z,54.50
2018-04-12T06:01:11.970Z,55.10
2018-04-12T06:02:15.975Z,55.40
2018-04-12T06:03:19.957Z,54.50
2018-04-12T06:04:25.189Z,54.50
2018-04-12T06:05:30.799Z,54.40
2018-04-12T06:06:35.784Z,55.00
2018-04-12T06:07:39.748Z,54.40
2018-04-12T06:08:44.515Z,53.50
2018-04-12T06:09:48.531Z,53.70
2018-04-12T06:10:53.045Z,54.40
2018-04-12T06:11:57.870Z,54.40
2018-04-12T06:13:01.859Z,54.40
2018-04-12T06:14:05.904Z,54.40
2018-04-12T06:15:10.811Z,55.00
2018-04-12T06:16:15.421Z,54.40
2018-04-12T06:17:20.900Z,54.40
2018-04-12T06:18:24.881Z,54.50
2018-04-12T06:19:40.212Z,54.40
2018-04-12T06:20:46.258Z,54.30
2018-04-12T06:21:52.309Z,54.40
2018-04-12T06:22:56.477Z,54.30
2018-04-12T06:24:00.518Z,54.50
2018-04-12T06:25:07.068Z,54.40
2018-04-12T06:26:11.490Z,54.30
2018-04-12T06:27:16.229Z,54.40
2018-04-12T06:28:22.422Z,54.40
2018-04-12T06:29:27.208Z,54.30
2018-04-12T06:30:31.685Z,54.30
2018-04-12T06:31:35.838Z,54.40
2018-04-12T06:32:39.852Z,54.30
2018-04-12T06:33:44.399Z,54.40
2018-04-12T06:34:49.097Z,54.40
2018-04-12T06:35:53.237Z,54.40
2018-04-12T06:36:58.842Z,54.40
2018-04-12T06:38:03.481Z,54.40
2018-04-12T06:39:08.356Z,54.40
2018-04-12T06:40:13.055Z,54.40
2018-04-12T06:41:17.240Z,54.40
2018-04-12T06:42:23.075Z,55.00
2018-04-12T06:43:28.863Z,54.40
2018-04-12T06:44:33.161Z,54.40
2018-04-12T06:45:37.194Z,54.40
2018-04-12T06:46:42.725Z,54.50
2018-04-12T06:47:47.104Z,54.30
2018-04-12T06:48:51.094Z,54.40
2018-04-12T06:49:55.940Z,54.30
2018-04-12T06:51:01.098Z,54.40
2018-04-12T06:52:08.020Z,54.50
2018-04-12T06:53:12.536Z,54.50
2018-04-12T06:54:17.342Z,54.70
2018-04-12T06:55:22.242Z,54.50
2018-04-12T06:56:27.229Z,54.50
2018-04-12T06:57:31.788Z,54.40
2018-04-12T06:58:37.159Z,54.50
2018-04-12T06:59:49.344Z,54.40
2018-04-12T07:00:54.284Z,54.40
2018-04-12T07:01:58.446Z,54.40
2018-04-12T07:03:04.439Z,54.50
2018-04-12T07:04:10.113Z,54.50
2018-04-12T07:05:16.027Z,54.50
2018-04-12T07:06:21.248Z,54.50
2018-04-12T07:07:26.381Z,54.50
2018-04-12T07:08:36.831Z,54.20
2018-04-12T07:09:42.464Z,54.50
2018-04-12T07:10:46.906Z,54.50
2018-04-12T07:11:54.017Z,54.60
2018-04-12T07:12:58.661Z,54.60
2018-04-12T07:14:04.964Z,54.50
2018-04-12T07:15:09.436Z,54.60
2018-04-12T07:16:15.428Z,54.70
2018-04-12T07:17:19.765Z,54.70
2018-04-12T07:18:24.552Z,54.80
2018-04-12T07:19:29.384Z,54.70
2018-04-12T07:20:34.432Z,54.70
2018-04-12T07:21:40.058Z,54.60
2018-04-12T07:22:44.889Z,55.70
2018-04-12T07:23:49.606Z,54.70
2018-04-12T07:24:54.228Z,54.60
2018-04-12T07:26:01.116Z,54.60
2018-04-12T07:27:07.281Z,54.70
2018-04-12T07:28:13.950Z,54.70
2018-04-12T07:29:21.207Z,54.70
2018-04-12T07:30:25.957Z,54.60
2018-04-12T07:31:30.076Z,54.50
2018-04-12T07:32:34.113Z,54.60
2018-04-12T07:33:38.314Z,54.70
2018-04-12T07:34:43.158Z,54.70
2018-04-12T07:35:47.967Z,54.70
2018-04-12T07:36:52.097Z,54.70
2018-04-12T07:37:56.229Z,54.70
2018-04-12T07:39:00.247Z,54.70
2018-04-12T07:40:05.573Z,54.70
2018-04-12T07:41:09.742Z,54.60
2018-04-12T07:42:15.006Z,53.90
2018-04-12T07:43:19.378Z,55.20
2018-04-12T07:44:26.656Z,54.70
2018-04-12T07:45:30.756Z,54.80
2018-04-12T07:46:35.537Z,54.70
2018-04-12T07:47:39.935Z,54.70
2018-04-12T07:48:44.251Z,54.70
2018-04-12T07:49:49.891Z,54.70
2018-04-12T07:50:53.910Z,54.70
2018-04-12T07:51:58.734Z,54.80
2018-04-12T07:53:03.597Z,54.80
2018-04-12T07:54:09.066Z,55.30
2018-04-12T07:55:14.853Z,54.50
2018-04-12T07:56:18.913Z,54.70
2018-04-12T07:57:23.048Z,54.80
2018-04-12T07:58:28.267Z,54.60
2018-04-12T07:59:33.349Z,54.60
2018-04-12T08:00:38.376Z,56.80
2018-04-12T08:01:45.547Z,54.60
2018-04-12T08:02:50.503Z,54.80
2018-04-12T08:03:55.748Z,53.80
2018-04-12T08:05:01.524Z,55.10
2018-04-12T08:06:05.881Z,54.80
2018-04-12T08:07:11.755Z,54.70
2018-04-12T08:08:16.065Z,54.70
2018-04-12T08:09:20.354Z,54.70
2018-04-12T08:10:26.752Z,55.40
2018-04-12T08:11:31.109Z,54.70
2018-04-12T08:12:36.192Z,54.80
2018-04-12T08:13:43.242Z,54.80
2018-04-12T08:14:48.225Z,54.90
2018-04-12T08:15:53.324Z,55.90
2018-04-12T08:16:58.617Z,55.90
2018-04-12T08:18:04.324Z,54.90
2018-04-12T08:19:10.351Z,55.60
2018-04-12T08:20:16.250Z,54.90
2018-04-12T08:21:21.554Z,54.80
2018-04-12T08:22:26.516Z,54.90
2018-04-12T08:23:30.781Z,54.80
2018-04-12T08:24:35.957Z,54.90
2018-04-12T08:25:40.376Z,54.80
2018-04-12T08:26:44.696Z,54.90
2018-04-12T08:27:48.859Z,54.90
2018-04-12T08:28:52.973Z,54.90
2018-04-12T08:29:57.085Z,54.90
2018-04-12T08:31:02.184Z,54.90
2018-04-12T08:32:07.225Z,54.80
2018-04-12T08:33:13.462Z,54.40
2018-04-12T08:34:20.538Z,56.00
2018-04-12T08:35:25.520Z,54.30
2018-04-12T08:36:31.262Z,54.80
2018-04-12T08:37:38.303Z,54.80
2018-04-12T08:38:42.436Z,54.80
2018-04-12T08:39:47.753Z,54.90
2018-04-12T08:40:51.744Z,54.90
2018-04-12T08:41:56.100Z,54.80
2018-04-12T08:43:00.121Z,54.80
2018-04-12T08:44:05.076Z,55.40
2018-04-12T08:45:09.210Z,55.00
2018-04-12T08:46:15.109Z,55.00
2018-04-12T08:47:20.127Z,54.10
2018-04-12T08:48:37.153Z,55.00
2018-04-12T08:49:41.154Z,55.00
2018-04-12T08:50:46.424Z,55.00
2018-04-12T08:51:51.120Z,53.90
2018-04-12T08:52:55.885Z,55.00
2018-04-12T08:54:01.262Z,54.90
2018-04-12T08:55:07.371Z,54.80
2018-04-12T08:56:14.153Z,54.90
2018-04-12T08:57:18.204Z,54.90
2018-04-12T08:58:22.220Z,56.30
2018-04-12T08:59:26.350Z,55.90
2018-04-12T09:00:31.085Z,56.10
2018-04-12T09:01:35.767Z,54.90
2018-04-12T09:02:39.803Z,55.00
2018-04-12T09:03:43.790Z,55.10
2018-04-12T09:04:48.217Z,55.10
2018-04-12T09:05:52.696Z,55.10
2018-04-12T09:06:58.985Z,54.80
2018-04-12T09:08:03.982Z,55.20
2018-04-12T09:09:08.041Z,54.00
2018-04-12T09:10:15.004Z,55.10
2018-04-12T09:11:19.784Z,55.00
2018-04-12T09:12:25.896Z,54.80
2018-04-12T09:13:29.885Z,55.10
2018-04-12T09:14:33.931Z,55.20
2018-04-12T09:15:39.094Z,55.10
2018-04-12T09:16:43.861Z,55.00
2018-04-12T09:17:47.962Z,55.00
2018-04-12T09:18:53.280Z,55.10
2018-04-12T09:19:57.293Z,55.00
2018-04-12T09:21:01.314Z,55.10
2018-04-12T09:22:08.197Z,55.10
2018-04-12T09:23:12.547Z,54.90
2018-04-12T09:24:16.591Z,55.10
2018-04-12T09:25:20.792Z,55.10
2018-04-12T09:26:24.810Z,55.10
2018-04-12T09:27:28.793Z,55.20
2018-04-12T09:28:34.365Z,54.80
2018-04-12T09:29:39.131Z,55.30
2018-04-12T09:30:43.226Z,55.20
2018-04-12T09:31:47.311Z,55.30
2018-04-12T09:32:52.482Z,55.30
2018-04-12T09:34:58.796Z,55.30
2018-04-12T09:36:02.777Z,54.20
2018-04-12T09:37:08.301Z,55.40
2018-04-12T09:38:13.173Z,55.30
2018-04-12T09:39:17.172Z,55.40
2018-04-12T09:40:21.188Z,55.20
2018-04-12T09:41:25.880Z,54.60
2018-04-12T09:42:29.854Z,55.20
2018-04-12T09:43:34.237Z,55.20
2018-04-12T09:44:38.252Z,55.20
2018-04-12T09:45:44.386Z,55.10
2018-04-12T09:46:49.311Z,55.70
2018-04-12T09:47:53.300Z,55.20
2018-04-12T09:48:58.082Z,55.20
2018-04-12T09:50:03.397Z,55.20
2018-04-12T09:51:08.238Z,55.20
2018-04-12T09:52:13.811Z,55.20
2018-04-12T09:53:17.796Z,55.10
2018-04-12T09:54:22.691Z,55.20
2018-04-12T09:55:27.758Z,55.30
2018-04-12T09:56:31.744Z,55.30
2018-04-12T09:57:36.415Z,55.00
2018-04-12T09:58:40.432Z,55.30
2018-04-12T09:59:44.458Z,55.40
2018-04-12T10:00:53.205Z,55.40
2018-04-12T10:02:01.684Z,56.40
2018-04-12T10:03:09.821Z,55.40
2018-04-12T10:04:16.775Z,55.50
2018-04-12T10:05:25.734Z,55.40
2018-04-12T10:06:34.202Z,55.40
2018-04-12T10:07:44.136Z,55.40
2018-04-12T10:08:53.081Z,55.40
2018-04-12T10:09:58.152Z,55.30
2018-04-12T10:11:03.291Z,55.40
2018-04-12T10:12:08.130Z,55.40
2018-04-12T10:13:13.037Z,55.40
2018-04-12T10:14:18.201Z,55.40
2018-04-12T10:15:22.682Z,55.50
2018-04-12T10:16:28.189Z,55.60
2018-04-12T10:17:32.478Z,55.50
2018-04-12T10:18:37.433Z,55.60
2018-04-12T10:19:41.518Z,55.60
2018-04-12T10:20:45.686Z,55.70
2018-04-12T10:21:50.279Z,55.70
2018-04-12T10:22:54.576Z,55.70
2018-04-12T10:24:00.066Z,55.70
2018-04-12T10:25:04.059Z,55.70
2018-04-12T10:26:09.271Z,55.90
2018-04-12T10:27:14.231Z,55.80
2018-04-12T10:28:18.338Z,55.80
2018-04-12T10:29:22.281Z,55.80
2018-04-12T10:30:26.233Z,55.90
2018-04-12T10:31:30.253Z,55.90
2018-04-12T10:32:38.345Z,55.70
2018-04-12T10:33:42.381Z,55.70
2018-04-12T10:34:48.334Z,55.80
2018-04-12T10:35:53.853Z,55.70
2018-04-12T10:36:59.650Z,56.00
2018-04-12T10:38:04.462Z,55.80
2018-04-12T10:39:09.963Z,55.50
2018-04-12T10:40:16.151Z,55.70
2018-04-12T10:41:20.867Z,55.90
2018-04-12T10:42:24.939Z,55.90
2018-04-12T10:43:29.054Z,57.00
2018-04-12T10:44:33.278Z,56.00
2018-04-12T10:45:38.173Z,57.30
2018-04-12T10:46:42.585Z,56.00
2018-04-12T10:47:46.534Z,56.00
2018-04-12T10:48:51.345Z,55.20
2018-04-12T10:49:56.058Z,55.90
2018-04-12T10:51:00.142Z,55.90
2018-04-12T10:52:04.450Z,56.00
2018-04-12T10:53:08.465Z,56.00
2018-04-12T10:54:13.640Z,56.00
2018-04-12T10:55:17.614Z,56.20
2018-04-12T10:56:22.441Z,56.20
2018-04-12T10:57:26.472Z,56.20
2018-04-12T10:58:30.516Z,56.10
2018-04-12T10:59:34.624Z,56.00
2018-04-12T11:00:40.383Z,55.90
2018-04-12T11:01:45.949Z,55.90
2018-04-12T11:02:50.359Z,56.00
2018-04-12T11:03:55.103Z,55.90
2018-04-12T11:05:00.178Z,56.00
2018-04-12T11:06:05.540Z,55.80
2018-04-12T11:07:10.726Z,55.70
2018-04-12T11:08:15.904Z,56.00
2018-04-12T11:09:19.951Z,56.50
2018-04-12T11:10:24.693Z,56.10
2018-04-12T11:11:28.681Z,56.10
2018-04-12T11:12:32.693Z,56.00
2018-04-12T11:13:36.707Z,56.10
2018-04-12T11:14:40.738Z,55.90
2018-04-12T11:15:45.338Z,56.00
2018-04-12T11:16:50.239Z,56.00
2018-04-12T11:17:55.094Z,56.10
2018-04-12T11:18:59.120Z,56.00
2018-04-12T11:20:03.907Z,56.00
2018-04-12T11:21:08.446Z,56.10
2018-04-12T11:22:14.078Z,56.20
2018-04-12T11:23:20.407Z,56.90
2018-04-12T11:24:24.460Z,56.00
2018-04-12T11:25:28.790Z,56.10
2018-04-12T11:26:33.368Z,56.00
2018-04-12T11:27:38.186Z,56.00
2018-04-12T11:28:43.630Z,56.30
2018-04-12T11:29:50.188Z,56.50
2018-04-12T11:30:54.987Z,56.40
2018-04-12T11:31:59.685Z,56.40
2018-04-12T11:33:03.696Z,56.50
2018-04-12T11:34:10.065Z,56.30
2018-04-12T11:35:16.463Z,56.30
2018-04-12T11:36:20.743Z,56.30
2018-04-12T11:37:33.305Z,56.20
2018-04-12T11:38:37.516Z,56.10
2018-04-12T11:39:42.405Z,56.10
2018-04-12T11:40:46.398Z,56.10
2018-04-12T11:41:51.117Z,56.20
2018-04-12T11:42:55.174Z,56.20
2018-04-12T11:43:59.971Z,55.40
2018-04-12T11:45:04.009Z,56.50
2018-04-12T11:46:08.937Z,56.50
2018-04-12T11:47:15.258Z,56.50
2018-04-12T11:48:19.245Z,56.50
2018-04-12T11:49:23.597Z,56.50
2018-04-12T11:50:28.383Z,56.40
2018-04-12T11:51:34.571Z,56.30
2018-04-12T11:52:39.036Z,56.30
2018-04-12T11:53:44.109Z,56.30
2018-04-12T11:54:48.841Z,56.30
2018-04-12T11:55:53.854Z,56.20
2018-04-12T11:56:57.901Z,56.30
2018-04-12T11:58:04.993Z,56.30
2018-04-12T11:59:08.989Z,55.50
2018-04-12T12:00:14.521Z,56.40
2018-04-12T12:01:19.979Z,56.40
2018-04-12T12:02:24.804Z,56.40
2018-04-12T12:03:31.080Z,56.40
2018-04-12T12:04:35.533Z,56.40
2018-04-12T12:05:40.257Z,56.40
2018-04-12T12:06:44.316Z,56.40
2018-04-12T12:07:48.382Z,56.40
2018-04-12T12:08:55.017Z,58.40
2018-04-12T12:10:00.646Z,57.40
2018-04-12T12:11:05.386Z,58.00
2018-04-12T12:12:11.885Z,57.10
2018-04-12T12:13:16.240Z,57.00
2018-04-12T12:14:21.867Z,57.00
2018-04-12T12:15:27.560Z,56.90
2018-04-12T12:16:31.612Z,56.30
2018-04-12T12:17:37.414Z,57.30
2018-04-12T12:18:43.091Z,57.20
2018-04-12T12:19:47.560Z,57.10
2018-04-12T12:20:52.406Z,57.00
2018-04-12T12:21:56.939Z,56.60
2018-04-12T12:23:01.130Z,57.10
2018-04-12T12:24:05.643Z,56.00
2018-04-12T12:25:11.261Z,57.30
2018-04-12T12:26:17.875Z,57.30
2018-04-12T12:27:24.210Z,57.10
2018-04-12T12:28:28.251Z,57.00
2018-04-12T12:29:33.646Z,57.90
2018-04-12T12:30:37.998Z,57.30
2018-04-12T12:31:41.961Z,57.40
2018-04-12T12:32:47.943Z,57.70
2018-04-12T12:33:52.035Z,57.70
2018-04-12T12:34:56.910Z,57.60
2018-04-12T12:36:01.140Z,57.60
2018-04-12T12:37:05.704Z,57.60
2018-04-12T12:38:23.980Z,57.50
2018-04-12T12:39:28.331Z,57.50
2018-04-12T12:40:33.426Z,58.50
2018-04-12T12:41:38.774Z,57.60
2018-04-12T12:42:43.846Z,57.60
2018-04-12T12:43:49.213Z,57.50
2018-04-12T12:44:53.601Z,57.50
2018-04-12T12:45:57.719Z,57.50
2018-04-12T12:47:03.904Z,57.50
2018-04-12T12:48:28.313Z,57.50
2018-04-12T12:49:34.045Z,57.50
2018-04-12T12:50:38.018Z,57.60
2018-04-12T12:51:42.060Z,57.60
2018-04-12T12:52:46.968Z,57.60
2018-04-12T12:53:51.013Z,57.60
2018-04-12T12:54:55.297Z,57.50
2018-04-12T12:55:59.560Z,57.60
2018-04-12T12:57:03.620Z,57.50
2018-04-12T12:58:08.356Z,57.50
2018-04-12T12:59:15.977Z,57.50
2018-04-12T13:00:21.531Z,57.50
2018-04-12T13:01:25.630Z,57.50
2018-04-12T13:02:29.693Z,57.50
2018-04-12T13:03:33.866Z,57.10
2018-04-12T13:04:40.298Z,57.40
2018-04-12T13:05:44.625Z,58.00
2018-04-12T13:06:50.086Z,57.40
2018-04-12T13:07:54.878Z,57.80
2018-04-12T13:08:59.528Z,57.40
2018-04-12T13:10:04.378Z,57.30
2018-04-12T13:11:10.355Z,57.30
2018-04-12T13:12:15.162Z,57.80
2018-04-12T13:13:19.740Z,57.20
2018-04-12T13:14:23.703Z,57.30
2018-04-12T13:15:29.562Z,57.20
2018-04-12T13:16:34.619Z,57.00
2018-04-12T13:17:39.562Z,57.20
2018-04-12T13:18:43.838Z,58.00
2018-04-12T13:19:49.733Z,57.10
2018-04-12T13:20:54.924Z,57.10
2018-04-12T13:21:58.923Z,57.40
2018-04-12T13:23:03.977Z,57.10
2018-04-12T13:24:10.237Z,57.10
2018-04-12T13:25:15.344Z,57.10
2018-04-12T13:26:22.253Z,57.00
2018-04-12T13:27:27.052Z,57.10
2018-04-12T13:28:31.754Z,57.20
2018-04-12T13:29:37.027Z,57.10
2018-04-12T13:30:41.911Z,57.20
2018-04-12T13:31:46.953Z,57.20
2018-04-12T13:32:51.134Z,57.10
2018-04-12T13:33:55.750Z,57.10
2018-04-12T13:34:59.812Z,57.10
2018-04-12T13:36:03.902Z,57.10
2018-04-12T13:37:08.821Z,57.10
2018-04-12T13:38:14.821Z,57.20
2018-04-12T13:39:19.402Z,57.10
2018-04-12T13:40:24.210Z,57.20
2018-04-12T13:41:29.549Z,57.20
2018-04-12T13:42:34.586Z,57.10
2018-04-12T13:43:38.580Z,57.10
2018-04-12T13:44:43.717Z,57.10
2018-04-12T13:45:48.921Z,57.00
2018-04-12T13:46:53.318Z,56.80
2018-04-12T13:47:58.873Z,57.00
2018-04-12T13:49:04.534Z,57.00
2018-04-12T13:50:08.611Z,56.90
2018-04-12T13:51:14.973Z,57.30
2018-04-12T13:52:20.968Z,56.90
2018-04-12T13:53:25.317Z,56.90
2018-04-12T13:54:29.410Z,56.80
2018-04-12T13:55:33.953Z,57.40
2018-04-12T13:56:39.121Z,56.80
2018-04-12T13:57:44.387Z,56.80
2018-04-12T13:58:48.404Z,56.80
2018-04-12T13:59:52.421Z,56.80
2018-04-12T14:00:56.928Z,56.70
2018-04-12T14:02:02.272Z,56.70
2018-04-12T14:03:08.359Z,56.70